Time;durP1;ratioP1;P1;durP2;ratioP2;P2;SDS_P1;SDS_P2;PMS_P1;PMS_P2;Temp;Humidity;BMP_temperature;BMP_pressure;BME280_temperature;BME280_humidity;BME280_pressure;Samples;Min_cycle;Max_cycle;Signal;HPM_P1;HPM_P2
2021/07/09 00:01:19;;;;;;;23.25;15.63;;;16.10;99.90;;;;;;5011977;28;20033;-80
2021/07/09 00:03:45;;;;;;;22.85;14.23;;;16.10;99.90;;;;;;5012028;28;20022;-80
2021/07/09 00:06:10;;;;;;;26.08;17.50;;;16.10;99.90;;;;;;5011219;28;20102;-80
2021/07/09 00:08:36;;;;;;;27.90;19.90;;;16.00;99.90;;;;;;4992490;28;20054;-79
2021/07/09 00:11:02;;;;;;;32.75;18.65;;;16.10;99.90;;;;;;4992391;28;20105;-80
2021/07/09 00:13:28;;;;;;;22.08;15.80;;;16.00;99.90;;;;;;5007231;28;20034;-80
2021/07/09 00:15:54;;;;;;;28.05;17.88;;;16.00;99.90;;;;;;4992435;28;20026;-80
2021/07/09 00:18:19;;;;;;;25.98;16.92;;;16.10;99.90;;;;;;5007181;28;20033;-80
2021/07/09 00:20:45;;;;;;;34.25;19.42;;;16.10;99.90;;;;;;5011951;28;20470;-80
2021/07/09 00:23:11;;;;;;;29.65;18.65;;;16.00;99.90;;;;;;5011777;28;20454;-80
2021/07/09 00:25:36;;;;;;;29.40;19.77;;;16.10;99.90;;;;;;5012039;28;20026;-80
2021/07/09 00:28:03;;;;;;;30.60;18.92;;;16.10;99.90;;;;;;5009882;28;20101;-80
2021/07/09 00:30:29;;;;;;;27.02;18.83;;;16.10;99.90;;;;;;5010667;28;20022;-80
2021/07/09 00:32:55;;;;;;;25.23;17.65;;;16.00;99.90;;;;;;5011472;28;20034;-80
2021/07/09 00:35:20;;;;;;;27.63;20.55;;;16.00;99.90;;;;;;5011793;28;20076;-80
2021/07/09 00:37:46;;;;;;;26.67;19.83;;;16.00;99.90;;;;;;5006629;28;20101;-80
2021/07/09 00:40:12;;;;;;;34.83;21.73;;;16.00;99.90;;;;;;4992278;28;20030;-80
2021/07/09 00:42:38;;;;;;;25.98;19.40;;;15.90;99.90;;;;;;4991968;28;20035;-80
2021/07/09 00:45:05;;;;;;;38.58;21.38;;;15.90;99.90;;;;;;5007107;28;20085;-80
2021/07/09 00:47:30;;;;;;;38.58;22.00;;;15.80;99.90;;;;;;4991932;28;20109;-80
2021/07/09 00:49:56;;;;;;;30.98;19.45;;;15.80;99.90;;;;;;5011590;28;20125;-80
2021/07/09 00:52:21;;;;;;;22.52;16.85;;;15.80;99.90;;;;;;5011423;28;20116;-79
2021/07/09 00:54:47;;;;;;;19.15;14.73;;;15.70;99.90;;;;;;5028607;28;20450;-80
2021/07/09 00:57:13;;;;;;;26.60;17.70;;;15.60;99.90;;;;;;5015650;28;20517;-79
2021/07/09 00:59:40;;;;;;;34.03;19.50;;;15.50;99.90;;;;;;5011131;28;20022;-79
2021/07/09 01:02:05;;;;;;;24.55;19.27;;;15.50;99.90;;;;;;5015119;28;20025;-80
2021/07/09 01:04:31;;;;;;;29.02;20.27;;;15.40;99.90;;;;;;5015223;28;20030;-79
2021/07/09 01:06:57;;;;;;;32.45;20.60;;;15.40;99.90;;;;;;5030507;28;20034;-80
2021/07/09 01:09:22;;;;;;;33.50;21.45;;;15.30;99.90;;;;;;5020551;28;20026;-79
2021/07/09 01:11:50;;;;;;;33.83;20.50;;;15.30;99.90;;;;;;4993964;28;20035;-79
2021/07/09 01:14:19;;;;;;;29.23;18.50;;;15.40;99.90;;;;;;4995441;28;20015;-80
2021/07/09 01:16:45;;;;;;;27.00;19.17;;;15.30;99.90;;;;;;4995432;28;20398;-80
2021/07/09 01:19:17;;;;;;;36.95;17.92;;;15.30;99.90;;;;;;5000266;28;20026;-80
2021/07/09 01:21:44;;;;;;;20.38;15.32;;;15.20;99.90;;;;;;5014653;28;20084;-80
2021/07/09 01:24:10;;;;;;;24.52;16.05;;;15.10;99.90;;;;;;5013579;28;20037;-79
2021/07/09 01:26:37;;;;;;;25.73;15.13;;;15.10;99.90;;;;;;5014913;28;20064;-79
2021/07/09 01:29:04;;;;;;;20.33;14.73;;;15.00;99.90;;;;;;5013091;28;20034;-80
2021/07/09 01:31:31;;;;;;;17.52;12.32;;;15.10;99.90;;;;;;5014437;28;20036;-80
2021/07/09 01:33:56;;;;;;;13.52;11.80;;;15.00;99.90;;;;;;5013428;28;20113;-79
2021/07/09 01:36:22;;;;;;;15.40;12.23;;;14.90;99.90;;;;;;5014702;28;20057;-80
2021/07/09 01:38:49;;;;;;;17.45;11.52;;;14.90;99.90;;;;;;5008158;28;20077;-80
2021/07/09 01:41:14;;;;;;;17.10;13.98;;;14.90;99.90;;;;;;4994825;28;20033;-80
2021/07/09 01:43:40;;;;;;;24.23;13.40;;;14.80;99.90;;;;;;4994828;28;20023;-80
2021/07/09 01:46:06;;;;;;;18.38;14.13;;;14.70;99.90;;;;;;4993643;28;20029;-79
2021/07/09 01:48:31;;;;;;;18.00;12.18;;;14.80;99.90;;;;;;4995915;28;20058;-80
2021/07/09 01:50:57;;;;;;;19.10;12.77;;;14.80;99.90;;;;;;5014319;28;20490;-79
2021/07/09 01:53:23;;;;;;;17.88;12.35;;;14.80;99.90;;;;;;5029401;28;20546;-79
2021/07/09 01:55:49;;;;;;;18.10;13.57;;;14.90;99.90;;;;;;5013021;28;20057;-80
2021/07/09 01:58:14;;;;;;;22.00;13.30;;;15.00;99.90;;;;;;5014277;28;20022;-80
2021/07/09 02:00:41;;;;;;;20.33;13.85;;;15.00;99.90;;;;;;4998147;28;20049;-80
2021/07/09 02:03:06;;;;;;;17.48;13.73;;;15.10;99.90;;;;;;5009538;28;20406;-80
2021/07/09 02:05:32;;;;;;;17.88;14.27;;;15.20;99.90;;;;;;4994469;28;20022;-80
2021/07/09 02:07:58;;;;;;;17.52;14.30;;;15.10;99.90;;;;;;4994554;28;20029;-79
2021/07/09 02:10:28;;;;;;;18.73;13.60;;;15.20;99.90;;;;;;5004996;28;20044;-80
2021/07/09 02:12:54;;;;;;;16.88;13.38;;;15.20;99.90;;;;;;5013651;28;20026;-80
2021/07/09 02:15:24;;;;;;;14.60;12.07;;;15.30;99.90;;;;;;5012631;28;20041;-80
2021/07/09 02:17:49;;;;;;;18.05;12.85;;;15.30;99.90;;;;;;5013977;28;20022;-80
2021/07/09 02:20:17;;;;;;;18.55;13.80;;;15.40;99.90;;;;;;5013058;28;20441;-80
2021/07/09 02:22:44;;;;;;;15.48;12.30;;;15.40;99.90;;;;;;5028735;28;20481;-80
2021/07/09 02:25:11;;;;;;;17.27;13.30;;;15.40;99.90;;;;;;5009105;28;20058;-80
2021/07/09 02:27:41;;;;;;;17.83;14.65;;;15.40;99.90;;;;;;5009513;28;20030;-79
2021/07/09 02:30:10;;;;;;;25.60;14.63;;;15.40;99.90;;;;;;4992987;28;20043;-79
2021/07/09 02:32:37;;;;;;;20.77;12.98;;;15.40;99.90;;;;;;4993808;28;20026;-80
2021/07/09 02:35:08;;;;;;;17.77;12.98;;;15.40;99.90;;;;;;4993924;28;20037;-79
2021/07/09 02:37:34;;;;;;;19.38;11.80;;;15.40;99.90;;;;;;4994017;28;20030;-80
2021/07/09 02:40:00;;;;;;;16.80;12.52;;;15.40;99.90;;;;;;4993822;28;20138;-80
2021/07/09 02:42:26;;;;;;;19.50;12.38;;;15.40;99.90;;;;;;4993671;28;20030;-80
2021/07/09 02:44:51;;;;;;;14.60;12.43;;;15.40;99.90;;;;;;5008851;28;20064;-80
2021/07/09 02:47:17;;;;;;;21.58;13.07;;;15.30;99.90;;;;;;4994042;28;20459;-80
2021/07/09 02:49:42;;;;;;;14.63;11.77;;;15.20;99.90;;;;;;4992582;28;20030;-79
2021/07/09 02:52:09;;;;;;;24.27;13.15;;;15.10;99.90;;;;;;4993496;28;20121;-79
2021/07/09 02:54:35;;;;;;;23.38;13.07;;;15.20;99.90;;;;;;4993520;28;20487;-80
2021/07/09 02:57:00;;;;;;;14.52;12.13;;;15.10;99.90;;;;;;5003334;28;20033;-80
2021/07/09 02:59:26;;;;;;;40.70;11.25;;;15.10;99.90;;;;;;5010334;28;20506;-80
2021/07/09 03:01:51;;;;;;;17.65;12.77;;;15.00;99.90;;;;;;5008456;28;20415;-80
2021/07/09 03:04:17;;;;;;;18.73;11.52;;;15.00;99.90;;;;;;4993462;28;20046;-79
2021/07/09 03:06:43;;;;;;;17.25;12.68;;;15.00;99.90;;;;;;5005065;28;20038;-79
2021/07/09 03:09:10;;;;;;;20.63;11.98;;;14.90;99.90;;;;;;5012931;28;20080;-79
2021/07/09 03:11:37;;;;;;;26.73;16.27;;;14.90;99.90;;;;;;5011398;28;20554;-79
2021/07/09 03:14:04;;;;;;;33.00;15.35;;;14.90;99.90;;;;;;5011641;28;20108;-79
2021/07/09 03:16:30;;;;;;;25.27;15.02;;;14.80;99.90;;;;;;5005051;28;20029;-80
2021/07/09 03:18:55;;;;;;;21.25;12.77;;;14.80;99.90;;;;;;4993217;28;20394;-80
2021/07/09 03:21:21;;;;;;;17.20;13.43;;;14.70;99.90;;;;;;5007962;28;20458;-80
2021/07/09 03:23:47;;;;;;;15.48;11.88;;;14.70;99.90;;;;;;4991749;28;20142;-79
2021/07/09 03:26:12;;;;;;;16.67;11.52;;;14.70;99.90;;;;;;5009933;28;20113;-80
2021/07/09 03:28:38;;;;;;;18.70;11.75;;;14.60;99.90;;;;;;4993485;28;20037;-79
2021/07/09 03:31:04;;;;;;;22.25;12.88;;;14.50;99.90;;;;;;4991704;28;20030;-79
2021/07/09 03:33:30;;;;;;;24.15;14.35;;;14.50;99.90;;;;;;4992755;28;20030;-80
2021/07/09 03:35:55;;;;;;;19.63;14.52;;;14.40;99.90;;;;;;4992969;28;20022;-80
2021/07/09 03:38:21;;;;;;;22.35;15.85;;;14.40;99.90;;;;;;5009134;28;20095;-80
2021/07/09 03:40:47;;;;;;;21.58;15.70;;;14.40;99.90;;;;;;5012543;28;20431;-80
2021/07/09 03:43:13;;;;;;;28.13;16.65;;;14.50;99.90;;;;;;5012275;28;20049;-80
2021/07/09 03:45:39;;;;;;;19.80;15.13;;;14.50;99.90;;;;;;5012325;28;20026;-80
2021/07/09 03:48:05;;;;;;;23.35;17.08;;;14.50;99.90;;;;;;5025944;28;20069;-80
2021/07/09 03:50:31;;;;;;;29.10;18.42;;;14.50;99.90;;;;;;5011082;28;20073;-80
2021/07/09 03:52:57;;;;;;;27.08;17.88;;;14.60;99.90;;;;;;5011895;28;20416;-80
2021/07/09 03:55:23;;;;;;;27.27;17.83;;;14.60;99.90;;;;;;5012210;28;20050;-79
2021/07/09 03:57:48;;;;;;;26.13;18.15;;;14.70;99.90;;;;;;5020607;28;20104;-80
2021/07/09 04:00:15;;;;;;;34.40;15.65;;;14.80;99.90;;;;;;4992597;28;20026;-80
2021/07/09 04:02:41;;;;;;;32.55;18.40;;;14.60;99.90;;;;;;4992334;28;20109;-80
2021/07/09 04:05:07;;;;;;;28.58;17.42;;;14.70;99.90;;;;;;5007562;28;20113;-80
2021/07/09 04:07:32;;;;;;;28.85;17.75;;;14.70;99.90;;;;;;4993604;28;20026;-79
2021/07/09 04:09:58;;;;;;;26.38;15.93;;;14.80;99.90;;;;;;5012067;28;20746;-80
2021/07/09 04:12:24;;;;;;;22.38;17.13;;;14.80;99.90;;;;;;5011787;28;20068;-80
2021/07/09 04:14:49;;;;;;;24.85;16.77;;;14.90;99.90;;;;;;5011993;28;20449;-80
2021/07/09 04:17:15;;;;;;;24.15;15.70;;;15.00;99.90;;;;;;5027340;28;20072;-80
2021/07/09 04:19:40;;;;;;;21.55;15.25;;;15.00;99.90;;;;;;4995752;28;20030;-80
2021/07/09 04:22:06;;;;;;;20.90;14.45;;;15.10;99.90;;;;;;4990811;28;20038;-80
2021/07/09 04:24:32;;;;;;;24.95;14.80;;;15.40;99.90;;;;;;5007383;28;20149;-80
2021/07/09 04:26:58;;;;;;;28.65;15.43;;;15.40;99.90;;;;;;4992397;28;20088;-80
2021/07/09 04:29:23;;;;;;;17.52;13.50;;;15.60;99.90;;;;;;5004198;28;20044;-80
2021/07/09 04:31:49;;;;;;;28.05;14.63;;;15.70;99.90;;;;;;5008191;28;20027;-80
2021/07/09 04:34:14;;;;;;;26.08;15.63;;;15.80;99.90;;;;;;4994915;28;20025;-80
2021/07/09 04:36:41;;;;;;;26.83;13.35;;;16.00;99.90;;;;;;5011153;28;20030;-80
2021/07/09 04:39:08;;;;;;;17.10;12.20;;;16.10;99.90;;;;;;5001746;28;20112;-80
2021/07/09 04:41:33;;;;;;;27.88;12.95;;;16.10;99.90;;;;;;5015533;28;20064;-80
2021/07/09 04:43:59;;;;;;;30.00;12.48;;;16.10;99.90;;;;;;5015663;28;20034;-80
2021/07/09 04:46:24;;;;;;;21.27;13.73;;;16.10;99.90;;;;;;5015687;28;20034;-80
2021/07/09 04:48:50;;;;;;;20.08;12.93;;;16.10;99.90;;;;;;5014730;28;20026;-80
2021/07/09 04:51:15;;;;;;;19.60;13.63;;;16.10;99.90;;;;;;4995645;28;20045;-80
2021/07/09 04:53:41;;;;;;;16.73;12.82;;;16.10;99.90;;;;;;4995824;28;20109;-80
2021/07/09 04:56:07;;;;;;;20.67;14.02;;;16.20;99.90;;;;;;4995910;28;20054;-80
2021/07/09 04:58:32;;;;;;;23.50;13.98;;;16.20;99.90;;;;;;4995811;28;20382;-80
2021/07/09 05:00:58;;;;;;;27.00;15.27;;;16.30;99.90;;;;;;5010588;28;20033;-80
2021/07/09 05:03:23;;;;;;;22.48;15.27;;;16.40;99.90;;;;;;5015036;28;20483;-80
2021/07/09 05:05:49;;;;;;;24.48;14.40;;;16.40;99.90;;;;;;5015232;28;20045;-80
2021/07/09 05:08:14;;;;;;;20.95;13.52;;;16.40;99.90;;;;;;5030524;28;20390;-80
2021/07/09 05:10:40;;;;;;;22.15;15.07;;;16.50;99.90;;;;;;5005118;28;20120;-80
2021/07/09 05:13:06;;;;;;;20.85;12.25;;;16.50;99.90;;;;;;4996543;28;20070;-80
2021/07/09 05:15:33;;;;;;;21.13;13.27;;;16.60;99.90;;;;;;4995496;28;20046;-81
2021/07/09 05:17:59;;;;;;;25.17;13.60;;;16.80;99.90;;;;;;5006655;28;20103;-81
2021/07/09 05:20:25;;;;;;;14.20;10.68;;;16.80;99.90;;;;;;5020575;28;20025;-81
2021/07/09 05:22:51;;;;;;;18.33;12.27;;;16.90;99.90;;;;;;5019999;28;20446;-81
2021/07/09 05:25:16;;;;;;;15.15;12.65;;;17.00;99.90;;;;;;5012607;28;20038;-82
2021/07/09 05:27:42;;;;;;;14.38;12.27;;;17.10;99.90;;;;;;5026009;28;20060;-82
2021/07/09 05:30:09;;;;;;;13.30;10.85;;;17.20;99.90;;;;;;5025043;28;20180;-81
2021/07/09 05:32:34;;;;;;;20.02;11.52;;;17.30;99.90;;;;;;5010339;28;20038;-82
2021/07/09 05:35:00;;;;;;;19.17;13.07;;;17.40;99.90;;;;;;5015215;28;20560;-81
2021/07/09 05:37:27;;;;;;;16.85;12.80;;;17.40;99.90;;;;;;5010254;28;20038;-82
2021/07/09 05:39:52;;;;;;;16.73;12.77;;;17.50;99.90;;;;;;5018150;28;20033;-82
2021/07/09 05:42:18;;;;;;;24.95;14.23;;;17.70;99.90;;;;;;5019225;28;20033;-82
2021/07/09 05:44:44;;;;;;;25.90;13.52;;;17.90;99.90;;;;;;5015982;28;20410;-81
2021/07/09 05:47:14;;;;;;;17.95;13.13;;;18.20;99.90;;;;;;5010624;28;20030;-81
2021/07/09 05:49:40;;;;;;;21.50;13.73;;;18.50;99.90;;;;;;5017419;28;20017;-80
2021/07/09 05:52:06;;;;;;;26.70;13.63;;;18.70;99.90;;;;;;5018919;28;20453;-81
2021/07/09 05:54:32;;;;;;;21.13;13.30;;;18.70;99.90;;;;;;5020501;28;20390;-80
2021/07/09 05:56:57;;;;;;;22.02;12.75;;;18.60;99.90;;;;;;5013690;28;20021;-80
2021/07/09 05:59:23;;;;;;;16.67;12.50;;;18.60;99.90;;;;;;5026030;28;20045;-80
2021/07/09 06:01:49;;;;;;;20.88;12.55;;;18.60;99.90;;;;;;5029153;28;20083;-80
2021/07/09 06:04:14;;;;;;;22.55;12.30;;;18.70;99.90;;;;;;5023887;28;20038;-80
2021/07/09 06:06:40;;;;;;;26.88;12.25;;;18.80;99.90;;;;;;5017741;28;20095;-79
2021/07/09 06:09:07;;;;;;;18.13;11.93;;;19.00;99.90;;;;;;5015406;28;20501;-80
2021/07/09 06:11:32;;;;;;;20.15;13.10;;;19.10;99.90;;;;;;5009232;28;20022;-81
2021/07/09 06:13:58;;;;;;;19.55;12.35;;;19.20;99.90;;;;;;5018506;28;20080;-79
2021/07/09 06:16:23;;;;;;;17.45;11.57;;;19.30;99.90;;;;;;5015215;28;20026;-79
2021/07/09 06:18:50;;;;;;;16.05;11.40;;;19.30;99.90;;;;;;5021194;28;20087;-80
2021/07/09 06:21:16;;;;;;;19.35;11.52;;;19.20;99.90;;;;;;4989299;28;1068231;-80
2021/07/09 06:23:41;;;;;;;18.40;11.82;;;19.20;99.90;;;;;;5026986;28;20040;-79
2021/07/09 06:26:08;;;;;;;19.75;10.73;;;19.40;99.90;;;;;;5012624;28;20046;-79
2021/07/09 06:28:34;;;;;;;14.82;10.02;;;19.60;99.90;;;;;;5011555;28;20159;-79
2021/07/09 06:31:00;;;;;;;18.05;10.60;;;19.60;99.90;;;;;;5020769;28;20509;-79
2021/07/09 06:33:25;;;;;;;17.23;10.65;;;19.70;99.90;;;;;;5011896;28;20029;-81
2021/07/09 06:35:51;;;;;;;12.95;9.65;;;19.60;99.90;;;;;;5027415;28;20084;-82
2021/07/09 06:38:16;;;;;;;19.15;11.65;;;19.50;99.90;;;;;;5019785;28;20084;-81
2021/07/09 06:40:45;;;;;;;17.10;10.70;;;19.40;99.90;;;;;;5009851;28;20076;-81
2021/07/09 06:43:12;;;;;;;20.35;10.82;;;19.40;99.90;;;;;;5030413;28;20516;-79
2021/07/09 06:45:38;;;;;;;14.07;10.95;;;19.40;99.90;;;;;;5025069;28;20030;-80
2021/07/09 06:48:05;;;;;;;16.05;10.68;;;19.50;99.90;;;;;;5013264;28;20402;-80
2021/07/09 06:50:31;;;;;;;14.75;10.93;;;19.70;99.90;;;;;;5013469;28;20390;-80
2021/07/09 06:52:56;;;;;;;34.92;10.80;;;19.70;99.90;;;;;;5012257;28;20113;-80
2021/07/09 06:55:22;;;;;;;21.55;12.43;;;19.70;99.90;;;;;;5009706;28;20041;-80
2021/07/09 06:57:47;;;;;;;14.27;10.68;;;19.70;99.90;;;;;;5013390;28;20022;-80
2021/07/09 07:00:15;;;;;;;16.80;10.30;;;19.70;99.90;;;;;;5013248;28;20056;-79
2021/07/09 07:02:40;;;;;;;19.02;10.07;;;19.70;99.90;;;;;;5012888;28;20105;-80
2021/07/09 07:05:07;;;;;;;14.35;10.27;;;19.90;99.90;;;;;;5023019;28;20034;-80
2021/07/09 07:07:32;;;;;;;20.92;10.73;;;20.10;99.90;;;;;;4993535;28;20028;-80
2021/07/09 07:09:58;;;;;;;15.45;10.38;;;20.20;99.90;;;;;;4993440;28;20038;-80
2021/07/09 07:12:26;;;;;;;25.00;10.15;;;20.40;99.90;;;;;;5010595;28;20030;-80
2021/07/09 07:14:53;;;;;;;16.48;9.18;;;20.40;99.90;;;;;;5020288;28;20033;-80
2021/07/09 07:17:18;;;;;;;14.00;9.38;;;20.50;99.90;;;;;;5003792;28;20029;-80
2021/07/09 07:19:44;;;;;;;18.85;9.88;;;20.50;99.90;;;;;;4994560;28;20030;-79
2021/07/09 07:22:10;;;;;;;16.25;9.73;;;20.70;99.90;;;;;;4993002;28;20045;-80
2021/07/09 07:24:35;;;;;;;12.65;8.82;;;20.80;99.90;;;;;;4991846;28;20030;-80
2021/07/09 07:27:01;;;;;;;12.93;8.40;;;21.00;99.90;;;;;;4993212;28;20026;-83
2021/07/09 07:29:27;;;;;;;13.55;8.35;;;21.00;99.90;;;;;;5003418;28;20065;-79
2021/07/09 07:31:52;;;;;;;14.20;8.63;;;21.10;99.90;;;;;;5012196;28;20026;-80
2021/07/09 07:34:18;;;;;;;17.45;8.18;;;21.10;99.90;;;;;;4995659;28;20031;-83
2021/07/09 07:36:44;;;;;;;15.07;9.52;;;20.90;99.90;;;;;;5008063;28;20054;-81
2021/07/09 07:39:10;;;;;;;18.13;8.73;;;21.00;99.90;;;;;;5008060;28;20553;-85
2021/07/09 07:41:37;;;;;;;11.15;7.97;;;21.10;99.90;;;;;;5002939;28;20022;-85
2021/07/09 07:44:04;;;;;;;14.48;8.20;;;21.30;99.90;;;;;;5013436;28;20030;-85
2021/07/09 07:46:30;;;;;;;19.17;8.57;;;21.30;99.90;;;;;;5013418;28;20060;-85
2021/07/09 07:48:57;;;;;;;15.93;8.30;;;21.30;99.90;;;;;;5009383;28;20030;-85
2021/07/09 07:51:24;;;;;;;18.90;8.65;;;21.50;99.90;;;;;;5009832;28;20028;-84
2021/07/09 07:53:50;;;;;;;13.10;9.18;;;21.40;99.90;;;;;;5007101;28;20022;-84
2021/07/09 07:56:17;;;;;;;12.77;7.18;;;21.40;99.90;;;;;;5009371;28;20251;-84
2021/07/09 07:58:43;;;;;;;12.88;7.82;;;21.40;99.90;;;;;;5013508;28;20013;-83
2021/07/09 08:01:09;;;;;;;12.98;7.82;;;21.40;99.90;;;;;;5012563;28;20398;-84
2021/07/09 08:03:35;;;;;;;10.85;7.80;;;21.60;99.90;;;;;;5016620;28;20461;-83
2021/07/09 08:06:01;;;;;;;18.80;8.88;;;21.60;99.90;;;;;;5021255;28;20120;-82
2021/07/09 08:08:26;;;;;;;15.75;7.10;;;21.60;99.90;;;;;;5017511;28;20041;-83
2021/07/09 08:10:52;;;;;;;14.20;7.88;;;21.70;99.90;;;;;;5020306;28;20026;-83
2021/07/09 08:13:18;;;;;;;13.55;8.35;;;21.80;99.90;;;;;;5017162;28;20045;-82
2021/07/09 08:15:43;;;;;;;14.75;7.65;;;21.70;99.90;;;;;;5012968;28;20033;-83
2021/07/09 08:18:09;;;;;;;19.30;8.05;;;21.80;99.90;;;;;;5006825;28;20029;-81
2021/07/09 08:20:35;;;;;;;17.70;7.90;;;21.80;99.90;;;;;;5010697;28;20026;-83
2021/07/09 08:23:01;;;;;;;14.15;7.03;;;21.90;99.90;;;;;;5011682;28;20033;-84
2021/07/09 08:25:27;;;;;;;21.05;8.88;;;21.90;99.90;;;;;;5011738;28;20037;-83
2021/07/09 08:27:53;;;;;;;12.70;7.68;;;21.90;99.90;;;;;;4998378;28;20030;-83
2021/07/09 08:30:19;;;;;;;10.98;7.70;;;22.00;99.90;;;;;;4993770;28;20038;-82
2021/07/09 08:32:44;;;;;;;13.05;8.75;;;21.90;99.90;;;;;;5011492;28;20029;-84
2021/07/09 08:35:10;;;;;;;20.23;7.85;;;22.10;99.90;;;;;;5011834;28;20030;-83
2021/07/09 08:37:36;;;;;;;10.77;7.82;;;22.20;99.90;;;;;;5027073;28;20441;-82
2021/07/09 08:40:02;;;;;;;12.90;7.68;;;22.30;99.90;;;;;;5011714;28;20102;-83
2021/07/09 08:42:28;;;;;;;13.52;8.15;;;22.50;99.90;;;;;;4997919;28;20027;-83
2021/07/09 08:44:54;;;;;;;12.05;7.00;;;22.60;99.90;;;;;;4992042;28;20026;-82
2021/07/09 08:47:19;;;;;;;17.42;9.15;;;22.50;99.90;;;;;;4990800;28;20064;-85
2021/07/09 08:49:48;;;;;;;12.60;8.48;;;22.70;99.90;;;;;;4992193;28;20495;-82
2021/07/09 08:52:13;;;;;;;12.98;7.63;;;22.70;99.90;;;;;;4992899;28;20036;-83
2021/07/09 08:54:39;;;;;;;12.40;7.50;;;22.60;99.90;;;;;;4991958;28;20109;-88
2021/07/09 08:57:05;;;;;;;12.02;7.43;;;22.80;99.90;;;;;;5017993;28;20026;-83
2021/07/09 08:59:30;;;;;;;16.23;7.53;;;22.90;99.90;;;;;;5011507;28;20474;-83
2021/07/09 09:02:03;;;;;;;11.02;7.45;;;23.00;99.90;;;;;;5009682;28;20038;-83
2021/07/09 09:04:29;;;;;;;14.02;7.28;;;22.80;99.90;;;;;;5011541;28;20453;-83
2021/07/09 09:07:04;;;;;;;11.65;7.57;;;22.90;99.90;;;;;;5026717;28;20118;-81
2021/07/09 09:09:33;;;;;;;11.32;6.60;;;23.20;99.90;;;;;;5011485;28;20018;-81
2021/07/09 09:11:59;;;;;;;8.73;6.60;;;23.80;99.90;;;;;;5007630;28;20538;-78
2021/07/09 09:14:25;;;;;;;10.88;5.95;;;24.10;99.90;;;;;;4991836;28;20022;-78
2021/07/09 09:16:50;;;;;;;11.57;6.07;;;24.30;99.90;;;;;;4995223;28;20022;-78
2021/07/09 09:19:22;;;;;;;11.85;6.38;;;24.20;99.90;;;;;;4994140;28;20498;-81
2021/07/09 09:22:08;;;;;;;15.10;5.80;;;24.00;99.90;;;;;;4995237;28;20045;-82
2021/07/09 09:24:34;;;;;;;9.48;5.47;;;24.20;99.90;;;;;;4995334;28;20030;-86
2021/07/09 09:26:59;;;;;;;10.82;5.03;;;24.50;99.90;;;;;;4995249;28;20022;-85
2021/07/09 09:29:25;;;;;;;13.13;4.57;;;24.80;99.90;;;;;;5010260;28;20027;-84
2021/07/09 09:31:53;;;;;;;14.43;4.72;;;25.10;99.90;;;;;;4994940;28;20030;-86
2021/07/09 09:34:41;;;;;;;6.97;4.75;;;25.40;99.90;;;;;;5026332;28;20467;-87
2021/07/09 09:37:08;;;;;;;8.15;4.53;;;25.60;99.90;;;;;;5014673;28;20108;-86
2021/07/09 09:39:34;;;;;;;11.48;4.72;;;25.40;99.90;;;;;;5013425;28;20044;-85
2021/07/09 09:42:17;;;;;;;12.50;4.63;;;25.60;99.90;;;;;;5029659;28;20573;-86
2021/07/09 09:44:44;;;;;;;14.93;5.78;;;25.80;99.90;;;;;;5012336;28;20037;-87
2021/07/09 09:47:20;;;;;;;9.23;4.05;;;25.80;99.90;;;;;;5015830;28;20030;-86
2021/07/09 09:50:19;;;;;;;10.73;4.70;;;25.70;99.90;;;;;;5025014;28;20394;-83
2021/07/09 09:52:48;;;;;;;10.13;4.35;;;25.50;99.90;;;;;;5004343;28;20129;-83
2021/07/09 09:55:19;;;;;;;8.35;4.38;;;25.50;99.90;;;;;;4997481;28;20087;-82
2021/07/09 09:57:46;;;;;;;8.27;4.43;;;25.10;99.90;;;;;;4994583;28;20030;-82
2021/07/09 10:00:21;;;;;;;5.75;4.15;;;25.50;99.90;;;;;;4994685;28;20018;-81
2021/07/09 10:02:48;;;;;;;8.48;4.28;;;25.90;99.90;;;;;;4994456;28;20110;-83
2021/07/09 10:05:14;;;;;;;7.85;4.82;;;26.00;99.90;;;;;;5004390;28;20430;-83
2021/07/09 10:07:41;;;;;;;10.05;3.72;;;25.70;99.90;;;;;;5013199;28;20084;-82
2021/07/09 10:10:09;;;;;;;12.32;4.35;;;25.50;99.90;;;;;;5029347;28;20172;-81
2021/07/09 10:12:37;;;;;;;7.03;4.78;;;25.10;99.90;;;;;;5013780;28;20060;-81
2021/07/09 10:15:03;;;;;;;6.97;3.97;;;25.40;99.90;;;;;;5003187;28;20033;-79
2021/07/09 10:17:30;;;;;;;8.35;4.50;;;25.70;99.90;;;;;;4994376;28;20022;-80
2021/07/09 10:19:58;;;;;;;7.20;3.58;;;25.80;99.90;;;;;;4994298;28;20027;-81
2021/07/09 10:22:25;;;;;;;5.78;4.13;;;25.60;99.90;;;;;;4994027;28;20045;-80
2021/07/09 10:24:53;;;;;;;6.40;3.50;;;25.30;99.90;;;;;;5014748;28;20021;-81
2021/07/09 10:27:21;;;;;;;7.97;4.20;;;25.10;99.90;;;;;;5020923;28;20018;-80
2021/07/09 10:29:48;;;;;;;9.15;4.10;;;25.10;99.90;;;;;;5013554;28;20397;-83
2021/07/09 10:32:37;;;;;;;10.80;4.18;;;24.80;99.90;;;;;;5012092;28;20030;-82
2021/07/09 10:35:08;;;;;;;12.35;4.10;;;24.70;99.90;;;;;;5010519;28;20068;-82
2021/07/09 10:37:34;;;;;;;6.13;3.88;;;24.70;99.90;;;;;;5028739;28;20028;-82
2021/07/09 10:40:12;;;;;;;6.55;3.55;;;24.70;99.90;;;;;;5013436;28;20398;-82
2021/07/09 10:42:42;;;;;;;5.80;3.30;;;24.80;99.90;;;;;;5028491;28;20032;-82
2021/07/09 10:45:11;;;;;;;4.70;3.25;;;24.80;99.90;;;;;;5010595;28;20026;-83
2021/07/09 10:47:45;;;;;;;3.75;3.25;;;24.80;99.90;;;;;;4993600;28;20390;-83
2021/07/09 10:50:21;;;;;;;8.23;3.65;;;24.80;99.90;;;;;;5008941;28;20030;-83
2021/07/09 10:52:50;;;;;;;6.40;3.90;;;25.00;99.90;;;;;;4993521;28;20101;-83
2021/07/09 10:55:24;;;;;;;6.38;2.90;;;24.90;99.90;;;;;;5009222;28;20109;-82
2021/07/09 10:58:09;;;;;;;5.63;3.40;;;25.00;99.90;;;;;;5028261;28;20022;-83
2021/07/09 11:00:44;;;;;;;5.50;3.30;;;24.90;99.90;;;;;;5028397;28;20087;-83
2021/07/09 11:03:11;;;;;;;8.73;3.70;;;24.90;99.90;;;;;;5028150;28;20030;-83
2021/07/09 11:05:43;;;;;;;3.85;2.97;;;24.80;99.90;;;;;;5012451;28;20041;-82
2021/07/09 11:08:33;;;;;;;6.32;3.47;;;24.40;99.90;;;;;;4995164;28;20041;-82
2021/07/09 11:11:08;;;;;;;6.63;3.20;;;24.30;99.90;;;;;;4993447;28;20045;-82
2021/07/09 11:13:40;;;;;;;5.43;3.47;;;24.00;99.90;;;;;;5008350;28;20125;-82
2021/07/09 11:16:18;;;;;;;5.60;3.75;;;23.60;99.90;;;;;;4995053;28;20105;-82
2021/07/09 11:19:07;;;;;;;8.60;3.63;;;23.50;99.90;;;;;;5023763;28;20054;-80
2021/07/09 11:21:33;;;;;;;10.02;3.63;;;23.40;99.90;;;;;;4993002;28;20118;-82
2021/07/09 11:24:14;;;;;;;7.03;4.22;;;23.30;99.90;;;;;;5008294;28;20046;-84
2021/07/09 11:26:59;;;;;;;14.05;4.80;;;23.00;99.90;;;;;;5011535;28;20025;-81
2021/07/09 11:29:34;;;;;;;12.23;5.70;;;22.80;99.90;;;;;;5012480;28;20087;-81
2021/07/09 11:32:00;;;;;;;7.75;5.75;;;22.70;99.90;;;;;;5027697;28;20030;-82
2021/07/09 11:34:28;;;;;;;21.02;5.78;;;22.60;99.90;;;;;;5012759;28;20386;-82
2021/07/09 11:36:56;;;;;;;7.13;3.42;;;22.30;99.90;;;;;;5009697;28;20071;-84
2021/07/09 11:39:27;;;;;;;4.18;2.70;;;22.00;99.90;;;;;;4987181;28;20014;-82
2021/07/09 11:42:01;;;;;;;6.13;3.08;;;21.70;99.90;;;;;;5013584;28;20048;-85
2021/07/09 11:45:00;;;;;;;7.93;4.10;;;21.50;99.90;;;;;;5007606;28;20093;-84
2021/07/09 11:47:28;;;;;;;11.52;3.45;;;21.40;99.90;;;;;;4970186;28;20030;-83
2021/07/09 11:49:58;;;;;;;6.60;2.70;;;21.30;99.90;;;;;;5016622;28;20375;-82
2021/07/09 11:52:29;;;;;;;4.53;3.17;;;21.10;99.90;;;;;;5021883;28;20032;-82
2021/07/09 11:54:57;;;;;;;12.43;3.70;;;21.00;99.90;;;;;;5025901;28;20117;-83
2021/07/09 11:57:31;;;;;;;20.52;5.90;;;20.80;99.90;;;;;;5015630;28;20028;-85
2021/07/09 11:59:58;;;;;;;;;;;20.40;99.90;;;;;;5018441;28;20545;-85
2021/07/09 12:02:27;;;;;;;22.45;5.78;;;20.00;99.90;;;;;;4995085;28;19914;-86
2021/07/09 12:04:54;;;;;;;22.92;8.50;;;19.80;99.90;;;;;;5015941;28;20073;-84
2021/07/09 12:07:27;;;;;;;8.52;4.53;;;19.60;99.90;;;;;;5012154;28;20372;-85
2021/07/09 12:09:54;;;;;;;15.32;2.95;;;19.40;99.90;;;;;;5012111;28;20026;-85
2021/07/09 12:12:21;;;;;;;5.75;2.67;;;18.90;99.90;;;;;;5026919;28;20087;-84
2021/07/09 12:14:55;;;;;;;9.48;2.80;;;18.60;99.90;;;;;;5025475;28;20029;-83
2021/07/09 12:17:22;;;;;;;5.18;3.22;;;18.20;99.90;;;;;;4994343;28;20427;-84
2021/07/09 12:20:02;;;;;;;8.20;3.35;;;18.10;99.90;;;;;;4994428;28;20038;-84
2021/07/09 12:22:35;;;;;;;12.10;3.67;;;17.80;99.90;;;;;;4992019;28;20030;-83
2021/07/09 12:25:04;;;;;;;9.68;4.35;;;17.60;99.90;;;;;;4992240;28;20030;-78
2021/07/09 12:27:34;;;;;;;5.38;2.88;;;17.60;99.90;;;;;;4998451;28;20038;-78
2021/07/09 12:30:05;;;;;;;12.70;4.60;;;17.50;99.90;;;;;;5007118;28;20034;-78
2021/07/09 12:32:31;;;;;;;9.80;4.95;;;17.30;99.90;;;;;;5006706;28;20030;-79
2021/07/09 12:35:05;;;;;;;9.27;4.85;;;17.20;99.90;;;;;;4991663;28;20117;-79